Downsville, New York
Current Conditions -  °F | °C
As of 7:55 PM on Monday 26 Jan 2015 (Local Time) from KMSV Reporting Station
Broken Clouds Broken Clouds  
Wind Chill: -15°   Ceiling: 2200
Heat Index: -7°   Visibility: 5mi
Dew Point: -9°   Wind: 16mph
Humidity: 86%   Direction: 90°E
Pressure: 29.82"   Gusts: 23mph
Location:  42.08°N, 75°W
Report Text: KMSV 270055Z AUTO 09014G20KT 5SM SCT014 BKN022 M07/M09 A2982 RMK AO1
Loading
Personal Weather Stations






























Interactive Weather Map New forecast layout! Learn more

10-Day Weather Forecast

Advertisements
Track Severe Weather on mobile